createdAt,value
2023-04-15T00:00:38.740Z,15.05
2023-04-15T00:03:54.721Z,15.15
2023-04-15T00:07:03.241Z,14.50
2023-04-15T00:10:12.025Z,15.88
2023-04-15T00:13:17.253Z,15.68
2023-04-15T00:16:25.314Z,13.57
2023-04-15T00:19:30.400Z,13.93
2023-04-15T00:22:35.822Z,15.70
2023-04-15T00:25:43.521Z,15.05
2023-04-15T00:28:49.206Z,14.98
2023-04-15T00:31:55.231Z,17.38
2023-04-15T00:35:02.607Z,18.15
2023-04-15T00:38:08.286Z,15.50
2023-04-15T00:41:17.484Z,21.63
2023-04-15T00:44:30.143Z,21.92
2023-04-15T00:47:37.457Z,16.92
2023-04-15T00:50:42.446Z,15.23
2023-04-15T00:53:50.250Z,15.75
2023-04-15T00:57:00.022Z,15.25
2023-04-15T01:00:06.533Z,15.73
2023-04-15T01:03:11.871Z,14.43
2023-04-15T01:06:17.620Z,21.58
2023-04-15T01:09:22.654Z,17.52
2023-04-15T01:12:31.007Z,18.33
2023-04-15T01:15:39.018Z,16.25
2023-04-15T01:18:44.499Z,18.52
2023-04-15T01:21:49.499Z,16.90
2023-04-15T01:24:58.881Z,17.15
2023-04-15T01:28:09.820Z,15.90
2023-04-15T01:31:15.886Z,15.95
2023-04-15T01:34:21.413Z,16.50
2023-04-15T01:37:27.892Z,16.20
2023-04-15T01:40:33.240Z,17.05
2023-04-15T01:43:41.511Z,17.30
2023-04-15T01:46:46.805Z,15.27
2023-04-15T01:49:54.455Z,18.58
2023-04-15T01:52:59.436Z,17.67
2023-04-15T01:56:04.972Z,15.05
2023-04-15T01:59:13.203Z,17.17
2023-04-15T02:02:21.348Z,14.68
2023-04-15T02:05:27.542Z,15.18
2023-04-15T02:08:32.926Z,15.10
2023-04-15T02:11:38.247Z,15.90
2023-04-15T02:14:46.460Z,14.10
2023-04-15T02:17:55.055Z,13.10
2023-04-15T02:21:00.424Z,18.20
2023-04-15T02:24:05.843Z,14.30
2023-04-15T02:27:13.697Z,13.50
2023-04-15T02:30:24.141Z,14.90
2023-04-15T02:33:29.502Z,15.25
2023-04-15T02:36:34.856Z,14.27
2023-04-15T02:39:40.262Z,15.57
2023-04-15T02:42:46.019Z,15.63
2023-04-15T02:45:54.590Z,17.25
2023-04-15T02:49:00.645Z,14.57
2023-04-15T02:52:06.629Z,16.65
2023-04-15T02:55:12.064Z,14.57
2023-04-15T02:58:17.391Z,16.27
2023-04-15T03:01:26.766Z,14.50
2023-04-15T03:04:33.735Z,14.90
2023-04-15T03:07:38.775Z,13.40
2023-04-15T03:10:48.166Z,17.38
2023-04-15T03:13:54.786Z,15.95
2023-04-15T03:17:06.888Z,17.33
2023-04-15T03:20:13.735Z,19.20
2023-04-15T03:23:19.178Z,16.27
2023-04-15T03:26:27.986Z,15.85
2023-04-15T03:29:33.790Z,21.70
2023-04-15T03:32:41.780Z,22.08
2023-04-15T03:35:51.100Z,21.42
2023-04-15T03:38:56.408Z,17.73
2023-04-15T03:42:04.644Z,21.10
2023-04-15T03:45:10.658Z,17.60
2023-04-15T03:48:20.059Z,20.42
2023-04-15T03:51:26.568Z,21.48
2023-04-15T03:54:31.908Z,22.25
2023-04-15T03:57:39.455Z,23.60
2023-04-15T04:00:45.120Z,21.27
2023-04-15T04:03:53.052Z,22.05
2023-04-15T04:07:02.635Z,21.92
2023-04-15T04:10:08.102Z,24.30
2023-04-15T04:13:13.819Z,23.70
2023-04-15T04:16:18.922Z,25.77
2023-04-15T04:19:29.169Z,25.42
2023-04-15T04:22:34.191Z,21.45
2023-04-15T04:25:39.508Z,20.08
2023-04-15T04:28:44.741Z,24.33
2023-04-15T04:31:50.215Z,23.52
2023-04-15T04:35:01.536Z,20.83
2023-04-15T04:38:07.086Z,22.55
2023-04-15T04:41:12.081Z,22.33
2023-04-15T04:44:17.406Z,23.67
2023-04-15T04:47:22.440Z,24.88
2023-04-15T04:50:30.451Z,26.80
2023-04-15T04:53:38.335Z,20.00
2023-04-15T04:56:44.229Z,22.05
2023-04-15T04:59:49.259Z,23.00
2023-04-15T05:02:55.362Z,21.38
2023-04-15T05:06:06.372Z,22.58
2023-04-15T05:09:12.363Z,21.90
2023-04-15T05:12:18.499Z,18.83
2023-04-15T05:15:24.173Z,21.98
2023-04-15T05:18:29.410Z,21.50
2023-04-15T05:21:39.438Z,20.42
2023-04-15T05:24:44.692Z,18.02
2023-04-15T05:27:51.529Z,21.40
2023-04-15T05:30:56.674Z,19.02
2023-04-15T05:34:04.033Z,18.95
2023-04-15T05:37:11.723Z,17.98
2023-04-15T05:40:19.068Z,17.40
2023-04-15T05:43:24.403Z,21.77
2023-04-15T05:46:32.671Z,20.58
2023-04-15T05:49:38.529Z,20.50
2023-04-15T05:52:47.051Z,17.60
2023-04-15T05:55:54.031Z,17.83
2023-04-15T05:58:59.712Z,18.85
2023-04-15T06:02:04.986Z,22.73
2023-04-15T06:05:14.015Z,19.42
2023-04-15T06:08:22.623Z,20.23
2023-04-15T06:11:29.769Z,19.02
2023-04-15T06:14:34.825Z,18.73
2023-04-15T06:17:40.512Z,20.00
2023-04-15T06:20:45.587Z,23.95
2023-04-15T06:23:53.592Z,18.45
2023-04-15T06:26:59.012Z,19.13
2023-04-15T06:30:04.550Z,22.98
2023-04-15T06:33:13.151Z,19.65
2023-04-15T06:36:18.723Z,26.20
2023-04-15T06:39:26.436Z,20.73
2023-04-15T06:42:32.034Z,20.80
2023-04-15T06:45:37.089Z,20.27
2023-04-15T06:48:50.078Z,21.10
2023-04-15T06:51:55.069Z,18.55
2023-04-15T06:55:03.261Z,20.77
2023-04-15T06:58:08.270Z,23.27
2023-04-15T07:01:15.196Z,23.00
2023-04-15T07:04:20.786Z,19.58
2023-04-15T07:07:26.689Z,20.73
2023-04-15T07:10:36.552Z,20.52
2023-04-15T07:13:41.919Z,24.83
2023-04-15T07:16:52.176Z,21.23
2023-04-15T07:20:17.432Z,25.13
2023-04-15T07:23:23.726Z,18.35
2023-04-15T07:26:44.097Z,22.65
2023-04-15T07:29:52.325Z,20.45
2023-04-15T07:32:59.160Z,22.02
2023-04-15T07:36:10.983Z,21.83
2023-04-15T07:39:18.528Z,22.40
2023-04-15T07:42:26.591Z,22.13
2023-04-15T07:45:32.020Z,21.70
2023-04-15T07:48:39.133Z,18.50
2023-04-15T07:51:44.652Z,21.00
2023-04-15T07:54:50.077Z,19.90
2023-04-15T07:57:59.989Z,21.10
2023-04-15T08:01:05.577Z,19.05
2023-04-15T08:04:11.138Z,22.00
2023-04-15T08:07:16.376Z,18.67
2023-04-15T08:10:22.018Z,20.40
2023-04-15T08:13:34.021Z,18.40
2023-04-15T08:16:41.769Z,15.48
2023-04-15T08:19:49.489Z,18.73
2023-04-15T08:22:56.149Z,19.27
2023-04-15T08:26:01.219Z,20.13
2023-04-15T08:29:09.415Z,21.00
2023-04-15T08:32:15.153Z,19.98
2023-04-15T08:35:21.471Z,18.75
2023-04-15T08:38:29.766Z,19.27
2023-04-15T08:41:37.476Z,21.13
2023-04-15T08:44:48.016Z,18.45
2023-04-15T08:47:58.476Z,21.85
2023-04-15T08:51:06.286Z,22.10
2023-04-15T08:54:15.380Z,21.05
2023-04-15T08:57:22.963Z,17.27
2023-04-15T09:00:32.693Z,17.35
2023-04-15T09:03:45.347Z,21.33
2023-04-15T09:06:55.218Z,20.70
2023-04-15T09:10:00.653Z,18.70
2023-04-15T09:13:06.493Z,22.60
2023-04-15T09:16:14.159Z,16.85
2023-04-15T09:19:24.835Z,19.27
2023-04-15T09:22:35.060Z,18.40
2023-04-15T09:25:42.613Z,20.02
2023-04-15T09:28:47.621Z,18.63
2023-04-15T09:31:55.989Z,15.68
2023-04-15T09:35:00.991Z,19.15
2023-04-15T09:38:07.690Z,24.75
2023-04-15T09:41:19.952Z,18.50
2023-04-15T09:47:39.683Z,16.08
2023-04-15T09:50:45.759Z,19.88
2023-04-15T09:53:57.508Z,17.27
2023-04-15T09:57:08.220Z,16.80
2023-04-15T10:00:14.294Z,19.13
2023-04-15T10:03:24.188Z,20.05
2023-04-15T10:06:31.740Z,19.77
2023-04-15T10:09:40.428Z,17.25
2023-04-15T10:12:48.578Z,15.73
2023-04-15T10:15:55.004Z,15.95
2023-04-15T10:19:04.709Z,17.40
2023-04-15T10:22:10.192Z,18.88
2023-04-15T10:25:15.941Z,21.55
2023-04-15T10:28:23.041Z,19.40
2023-04-15T10:31:28.947Z,18.20
2023-04-15T10:34:37.979Z,19.33
2023-04-15T10:37:43.022Z,18.33
2023-04-15T10:40:48.515Z,18.83
2023-04-15T10:47:18.906Z,19.30
2023-04-15T10:50:30.012Z,22.23
2023-04-15T10:53:38.141Z,17.88
2023-04-15T10:56:44.821Z,16.83
2023-04-15T11:00:04.965Z,15.73
2023-04-15T11:03:13.453Z,16.53
2023-04-15T11:06:21.699Z,19.23
2023-04-15T11:09:34.622Z,16.88
2023-04-15T11:12:40.283Z,16.73
2023-04-15T11:15:47.238Z,16.80
2023-04-15T11:18:57.849Z,18.42
2023-04-15T11:22:12.543Z,17.73
2023-04-15T11:25:25.417Z,16.58
2023-04-15T11:31:36.132Z,20.25
2023-04-15T11:34:41.198Z,16.13
2023-04-15T11:37:52.548Z,18.27
2023-04-15T11:40:57.644Z,18.85
2023-04-15T11:44:03.303Z,22.27
2023-04-15T11:47:23.589Z,15.93
2023-04-15T11:50:30.862Z,18.70
2023-04-15T11:57:02.689Z,17.45
2023-04-15T12:00:09.972Z,18.65
2023-04-15T12:03:26.766Z,15.82
2023-04-15T12:06:37.531Z,19.02
2023-04-15T12:09:42.961Z,16.42
2023-04-15T12:12:55.459Z,16.20
2023-04-15T12:16:00.507Z,20.60
2023-04-15T12:19:08.671Z,17.08
2023-04-15T12:22:15.491Z,18.55
2023-04-15T12:25:21.000Z,16.05
2023-04-15T12:28:28.638Z,17.35
2023-04-15T12:31:35.012Z,16.05
2023-04-15T12:34:40.673Z,14.18
2023-04-15T12:37:46.764Z,14.95
2023-04-15T12:40:54.226Z,16.40
2023-04-15T12:44:03.085Z,18.02
2023-04-15T12:47:08.960Z,18.80
2023-04-15T12:50:14.338Z,17.90
2023-04-15T12:53:23.512Z,16.17
2023-04-15T12:56:29.784Z,20.13
2023-04-15T12:59:37.770Z,16.25
2023-04-15T13:02:46.899Z,18.67
2023-04-15T13:05:53.241Z,16.35
2023-04-15T13:08:59.790Z,18.40
2023-04-15T13:12:05.774Z,18.00
2023-04-15T13:15:15.789Z,18.27
2023-04-15T13:18:20.937Z,17.10
2023-04-15T13:21:27.517Z,18.60
2023-04-15T13:24:32.616Z,17.90
2023-04-15T13:27:38.380Z,17.92
2023-04-15T13:30:50.807Z,18.90
2023-04-15T13:33:56.430Z,16.67
2023-04-15T13:37:01.612Z,19.83
2023-04-15T13:40:10.156Z,22.83
2023-04-15T13:43:17.764Z,18.40
2023-04-15T13:46:26.339Z,18.30
2023-04-15T13:49:31.495Z,19.08
2023-04-15T13:52:37.589Z,17.00
2023-04-15T13:55:43.247Z,16.35
2023-04-15T13:58:55.038Z,19.38
2023-04-15T14:02:02.743Z,15.48
2023-04-15T14:05:12.606Z,15.75
2023-04-15T14:08:18.368Z,16.52
2023-04-15T14:11:24.506Z,17.85
2023-04-15T14:14:29.998Z,14.75
2023-04-15T14:17:39.069Z,18.88
2023-04-15T14:20:44.178Z,19.38
2023-04-15T14:23:49.606Z,17.83
2023-04-15T14:26:54.593Z,18.40
2023-04-15T14:30:00.786Z,16.55
2023-04-15T14:33:08.378Z,16.85
2023-04-15T14:36:13.794Z,18.25
2023-04-15T14:39:21.515Z,16.63
2023-04-15T14:42:26.879Z,17.75
2023-04-15T14:45:33.003Z,14.90
2023-04-15T14:48:41.125Z,22.23
2023-04-15T14:51:46.687Z,19.27
2023-04-15T14:54:53.655Z,19.13
2023-04-15T14:57:58.691Z,17.55
2023-04-15T15:01:05.062Z,17.67
2023-04-15T15:04:13.297Z,17.83
2023-04-15T15:07:18.741Z,18.08
2023-04-15T15:10:33.693Z,19.40
2023-04-15T15:13:49.012Z,18.13
2023-04-15T15:16:54.049Z,18.50
2023-04-15T15:20:03.898Z,19.38
2023-04-15T15:23:11.764Z,18.92
2023-04-15T15:26:17.965Z,18.10
2023-04-15T15:29:23.115Z,18.70
2023-04-15T15:32:28.655Z,17.75
2023-04-15T15:35:36.888Z,16.45
2023-04-15T15:38:44.038Z,16.13
2023-04-15T15:41:48.990Z,20.63
2023-04-15T15:44:54.650Z,19.60
2023-04-15T15:48:01.690Z,19.30
2023-04-15T15:51:09.705Z,20.30
2023-04-15T15:54:20.017Z,18.17
2023-04-15T15:57:28.543Z,18.88
2023-04-15T16:00:33.543Z,16.98
2023-04-15T16:03:39.521Z,16.60
2023-04-15T16:06:47.591Z,19.38
2023-04-15T16:09:52.929Z,17.20
2023-04-15T16:12:57.930Z,17.70
2023-04-15T16:16:05.967Z,19.15
2023-04-15T16:19:11.014Z,21.40
2023-04-15T16:22:19.247Z,14.32
2023-04-15T16:25:25.929Z,16.65
2023-04-15T16:28:35.483Z,18.00
2023-04-15T16:31:41.717Z,17.38
2023-04-15T16:34:47.331Z,21.48
2023-04-15T16:37:54.930Z,18.33
2023-04-15T16:41:03.848Z,19.52
2023-04-15T16:44:09.291Z,22.58
2023-04-15T16:47:15.051Z,22.20
2023-04-15T16:50:20.276Z,20.83
2023-04-15T16:53:31.842Z,19.77
2023-04-15T16:56:36.946Z,24.05
2023-04-15T16:59:42.762Z,23.73
2023-04-15T17:02:47.894Z,17.92
2023-04-15T17:05:53.604Z,20.50
2023-04-15T17:09:01.290Z,19.40
2023-04-15T17:12:10.109Z,21.52
2023-04-15T17:15:15.200Z,23.17
2023-04-15T17:18:21.759Z,23.95
2023-04-15T17:21:26.863Z,23.52
2023-04-15T17:24:35.349Z,22.50
2023-04-15T17:27:41.250Z,19.42
2023-04-15T17:30:46.998Z,22.88
2023-04-15T17:34:03.180Z,17.17
2023-04-15T17:37:15.409Z,17.05
2023-04-15T17:40:23.958Z,17.65
2023-04-15T17:43:29.659Z,18.48
2023-04-15T17:46:35.117Z,16.15
2023-04-15T17:49:40.636Z,18.15
2023-04-15T17:52:49.518Z,17.13
2023-04-15T17:55:58.121Z,19.90
2023-04-15T17:59:03.888Z,15.10
2023-04-15T18:02:10.614Z,18.13
2023-04-15T18:05:15.785Z,14.88
2023-04-15T18:08:21.707Z,17.50
2023-04-15T18:11:29.556Z,19.10
2023-04-15T18:14:37.659Z,18.15
2023-04-15T18:17:42.987Z,19.40
2023-04-15T18:20:50.961Z,19.17
2023-04-15T18:23:56.293Z,20.60
2023-04-15T18:27:05.180Z,21.02
2023-04-15T18:30:12.514Z,17.25
2023-04-15T18:33:18.242Z,17.60
2023-04-15T18:36:24.354Z,20.90
2023-04-15T18:39:29.800Z,20.05
2023-04-15T18:42:41.089Z,17.30
2023-04-15T18:45:46.953Z,20.85
2023-04-15T18:49:00.309Z,20.17
2023-04-15T18:52:06.836Z,18.98
2023-04-15T18:55:15.709Z,22.23
2023-04-15T18:58:26.219Z,20.95
2023-04-15T19:01:31.838Z,22.67
2023-04-15T19:04:39.657Z,27.77
2023-04-15T19:07:45.299Z,21.27
2023-04-15T19:10:51.618Z,19.42
2023-04-15T19:14:00.660Z,22.20
2023-04-15T19:17:06.609Z,20.65
2023-04-15T19:20:14.804Z,16.90
2023-04-15T19:23:21.001Z,20.50
2023-04-15T19:26:26.958Z,18.38
2023-04-15T19:29:36.731Z,23.95
2023-04-15T19:32:43.800Z,17.65
2023-04-15T19:35:50.265Z,18.80
2023-04-15T19:38:58.970Z,20.92
2023-04-15T19:42:05.233Z,21.83
2023-04-15T19:45:25.743Z,19.50
2023-04-15T19:48:32.788Z,25.63
2023-04-15T19:51:38.284Z,19.55
2023-04-15T19:54:45.643Z,22.30
2023-04-15T19:57:50.759Z,20.83
2023-04-15T20:01:03.053Z,20.88
2023-04-15T20:04:11.136Z,26.50
2023-04-15T20:07:18.126Z,21.08
2023-04-15T20:10:23.233Z,25.33
2023-04-15T20:13:29.073Z,17.48
2023-04-15T20:16:39.481Z,20.05
2023-04-15T20:19:46.582Z,21.83
2023-04-15T20:22:53.311Z,16.83
2023-04-15T20:25:59.156Z,19.75
2023-04-15T20:29:07.904Z,21.95
2023-04-15T20:32:17.916Z,17.27
2023-04-15T20:35:25.271Z,21.10
2023-04-15T20:38:31.132Z,19.63
2023-04-15T20:41:36.347Z,18.80
2023-04-15T20:44:42.139Z,20.02
2023-04-15T20:47:50.158Z,20.33
2023-04-15T20:50:57.225Z,19.30
2023-04-15T20:54:10.950Z,18.40
2023-04-15T20:57:24.845Z,18.47
2023-04-15T21:00:29.915Z,22.67
2023-04-15T21:03:41.106Z,20.73
2023-04-15T21:06:46.280Z,21.38
2023-04-15T21:09:52.223Z,19.17
2023-04-15T21:13:01.400Z,17.60
2023-04-15T21:16:08.596Z,21.48
2023-04-15T21:19:16.696Z,23.58
2023-04-15T21:22:22.117Z,22.15
2023-04-15T21:25:29.186Z,20.63
2023-04-15T21:28:40.806Z,20.65
2023-04-15T21:31:46.124Z,19.83
2023-04-15T21:34:56.837Z,19.08
2023-04-15T21:38:07.637Z,23.10
2023-04-15T21:41:13.467Z,20.83
2023-04-15T21:44:20.050Z,27.38
2023-04-15T21:47:25.971Z,26.67
2023-04-15T21:50:33.663Z,22.52
2023-04-15T21:53:39.403Z,23.67
2023-04-15T21:56:47.445Z,22.50
2023-04-15T21:59:54.679Z,23.52
2023-04-15T22:03:00.196Z,21.48
2023-04-15T22:06:08.242Z,25.88
2023-04-15T22:09:14.296Z,23.80
2023-04-15T22:12:21.931Z,22.77
2023-04-15T22:15:28.309Z,21.20
2023-04-15T22:18:33.675Z,20.80
2023-04-15T22:21:42.465Z,22.67
2023-04-15T22:24:48.973Z,19.92
2023-04-15T22:27:54.537Z,22.00
2023-04-15T22:31:02.675Z,19.38
2023-04-15T22:34:08.397Z,22.88
2023-04-15T22:37:16.535Z,21.38
2023-04-15T22:40:23.836Z,23.83
2023-04-15T22:43:29.585Z,21.02
2023-04-15T22:46:36.162Z,22.27
2023-04-15T22:49:41.911Z,21.90
2023-04-15T22:52:58.264Z,20.95
2023-04-15T22:56:05.731Z,21.75
2023-04-15T22:59:13.726Z,26.23
2023-04-15T23:02:19.646Z,23.90
2023-04-15T23:05:25.021Z,22.55
2023-04-15T23:08:33.079Z,24.75
2023-04-15T23:11:40.829Z,20.58
2023-04-15T23:14:48.650Z,20.60
2023-04-15T23:17:56.281Z,19.63
2023-04-15T23:21:02.224Z,18.65
2023-04-15T23:24:13.419Z,16.52
2023-04-15T23:27:19.242Z,17.15
2023-04-15T23:30:26.035Z,18.23
2023-04-15T23:33:33.982Z,22.95
2023-04-15T23:36:41.062Z,41.65
2023-04-15T23:39:50.197Z,43.83
2023-04-15T23:42:56.116Z,38.97
2023-04-15T23:46:03.010Z,31.33
2023-04-15T23:49:08.198Z,25.70
2023-04-15T23:52:13.700Z,21.67
2023-04-15T23:55:21.451Z,17.17
2023-04-15T23:58:29.249Z,11.65
